sensor_id;sensor_type;location;lat;lon;timestamp;temperature;humidity
45729;DHT22;31439;53.512;10.206;2023-03-14T00:02:03;11.50;99.90
45729;DHT22;31439;53.512;10.206;2023-03-14T00:04:29;11.50;99.90
45729;DHT22;31439;53.512;10.206;2023-03-14T00:06:55;11.50;99.90
45729;DHT22;31439;53.512;10.206;2023-03-14T00:09:20;11.50;99.90
45729;DHT22;31439;53.512;10.206;2023-03-14T00:11:46;11.50;99.90
45729;DHT22;31439;53.512;10.206;2023-03-14T00:14:12;11.50;99.90
45729;DHT22;31439;53.512;10.206;2023-03-14T00:16:37;11.50;99.90
45729;DHT22;31439;53.512;10.206;2023-03-14T00:19:03;11.40;99.90
45729;DHT22;31439;53.512;10.206;2023-03-14T00:21:29;11.40;99.90
45729;DHT22;31439;53.512;10.206;2023-03-14T00:23:54;11.40;99.90
45729;DHT22;31439;53.512;10.206;2023-03-14T00:26:21;11.40;99.90
45729;DHT22;31439;53.512;10.206;2023-03-14T00:28:50;11.40;99.90
45729;DHT22;31439;53.512;10.206;2023-03-14T00:31:15;11.40;99.90
45729;DHT22;31439;53.512;10.206;2023-03-14T00:33:42;11.40;99.90
45729;DHT22;31439;53.512;10.206;2023-03-14T00:36:11;11.40;99.90
45729;DHT22;31439;53.512;10.206;2023-03-14T00:38:38;11.40;99.90
45729;DHT22;31439;53.512;10.206;2023-03-14T00:41:09;11.30;99.90
45729;DHT22;31439;53.512;10.206;2023-03-14T00:43:35;11.40;99.90
45729;DHT22;31439;53.512;10.206;2023-03-14T00:46:01;11.30;99.90
45729;DHT22;31439;53.512;10.206;2023-03-14T00:48:27;11.30;99.90
45729;DHT22;31439;53.512;10.206;2023-03-14T00:50:53;11.30;99.90
45729;DHT22;31439;53.512;10.206;2023-03-14T00:53:18;11.20;99.90
45729;DHT22;31439;53.512;10.206;2023-03-14T00:55:44;11.20;99.90
45729;DHT22;31439;53.512;10.206;2023-03-14T00:58:12;11.20;99.90
45729;DHT22;31439;53.512;10.206;2023-03-14T01:00:38;11.20;99.90
45729;DHT22;31439;53.512;10.206;2023-03-14T01:03:05;11.20;99.90
45729;DHT22;31439;53.512;10.206;2023-03-14T01:05:31;11.20;99.90
45729;DHT22;31439;53.512;10.206;2023-03-14T01:07:57;11.10;99.90
45729;DHT22;31439;53.512;10.206;2023-03-14T01:10:22;11.20;99.90
45729;DHT22;31439;53.512;10.206;2023-03-14T01:12:48;11.10;99.90
45729;DHT22;31439;53.512;10.206;2023-03-14T01:15:14;11.10;99.90
45729;DHT22;31439;53.512;10.206;2023-03-14T01:17:40;11.10;99.90
45729;DHT22;31439;53.512;10.206;2023-03-14T01:20:07;11.10;99.90
45729;DHT22;31439;53.512;10.206;2023-03-14T01:22:37;11.00;99.90
45729;DHT22;31439;53.512;10.206;2023-03-14T01:25:06;11.10;99.90
45729;DHT22;31439;53.512;10.206;2023-03-14T01:27:33;11.00;99.90
45729;DHT22;31439;53.512;10.206;2023-03-14T01:29:58;11.10;99.90
45729;DHT22;31439;53.512;10.206;2023-03-14T01:32:24;11.10;99.90
45729;DHT22;31439;53.512;10.206;2023-03-14T01:34:51;11.10;99.90
45729;DHT22;31439;53.512;10.206;2023-03-14T01:37:17;11.10;99.90
45729;DHT22;31439;53.512;10.206;2023-03-14T01:39:42;11.10;99.90
45729;DHT22;31439;53.512;10.206;2023-03-14T01:42:08;11.00;99.90
45729;DHT22;31439;53.512;10.206;2023-03-14T01:45:52;11.00;99.90
45729;DHT22;31439;53.512;10.206;2023-03-14T01:47:52;11.00;99.90
45729;DHT22;31439;53.512;10.206;2023-03-14T01:50:17;11.00;99.90
45729;DHT22;31439;53.512;10.206;2023-03-14T01:52:46;11.00;99.90
45729;DHT22;31439;53.512;10.206;2023-03-14T01:55:19;11.00;99.90
45729;DHT22;31439;53.512;10.206;2023-03-14T01:57:49;11.00;99.90
45729;DHT22;31439;53.512;10.206;2023-03-14T02:00:19;11.00;99.90
45729;DHT22;31439;53.512;10.206;2023-03-14T02:02:51;11.00;99.90
45729;DHT22;31439;53.512;10.206;2023-03-14T02:05:28;11.10;99.90
45729;DHT22;31439;53.512;10.206;2023-03-14T02:07:56;11.10;99.90
45729;DHT22;31439;53.512;10.206;2023-03-14T02:10:29;11.10;99.90
45729;DHT22;31439;53.512;10.206;2023-03-14T02:12:56;11.10;99.90
45729;DHT22;31439;53.512;10.206;2023-03-14T02:15:24;11.10;99.90
45729;DHT22;31439;53.512;10.206;2023-03-14T02:17:51;11.20;99.90
45729;DHT22;31439;53.512;10.206;2023-03-14T02:20:30;11.20;99.90
45729;DHT22;31439;53.512;10.206;2023-03-14T02:23:00;11.20;99.90
45729;DHT22;31439;53.512;10.206;2023-03-14T02:28:45;11.10;99.90
45729;DHT22;31439;53.512;10.206;2023-03-14T02:31:11;11.20;99.90
45729;DHT22;31439;53.512;10.206;2023-03-14T02:33:38;11.20;99.90
45729;DHT22;31439;53.512;10.206;2023-03-14T02:36:11;11.10;99.90
45729;DHT22;31439;53.512;10.206;2023-03-14T02:38:52;11.10;99.90
45729;DHT22;31439;53.512;10.206;2023-03-14T02:41:19;11.10;99.90
45729;DHT22;31439;53.512;10.206;2023-03-14T02:43:44;11.10;99.90
45729;DHT22;31439;53.512;10.206;2023-03-14T02:46:13;11.10;99.90
45729;DHT22;31439;53.512;10.206;2023-03-14T02:48:51;11.20;99.90
45729;DHT22;31439;53.512;10.206;2023-03-14T02:51:20;11.10;99.90
45729;DHT22;31439;53.512;10.206;2023-03-14T02:53:46;11.10;99.90
45729;DHT22;31439;53.512;10.206;2023-03-14T02:56:12;11.10;99.90
45729;DHT22;31439;53.512;10.206;2023-03-14T02:58:38;11.10;99.90
45729;DHT22;31439;53.512;10.206;2023-03-14T03:01:04;11.10;99.90
45729;DHT22;31439;53.512;10.206;2023-03-14T03:03:29;11.10;99.90
45729;DHT22;31439;53.512;10.206;2023-03-14T03:05:56;11.00;99.90
45729;DHT22;31439;53.512;10.206;2023-03-14T03:08:24;11.00;99.90
45729;DHT22;31439;53.512;10.206;2023-03-14T03:10:51;11.00;99.90
45729;DHT22;31439;53.512;10.206;2023-03-14T03:13:17;11.00;99.90
45729;DHT22;31439;53.512;10.206;2023-03-14T03:15:44;11.00;99.90
45729;DHT22;31439;53.512;10.206;2023-03-14T03:18:10;11.00;99.90
45729;DHT22;31439;53.512;10.206;2023-03-14T03:20:36;11.00;99.90
45729;DHT22;31439;53.512;10.206;2023-03-14T03:23:02;11.00;99.90
45729;DHT22;31439;53.512;10.206;2023-03-14T03:25:28;10.90;99.90
45729;DHT22;31439;53.512;10.206;2023-03-14T03:27:54;11.00;99.90
45729;DHT22;31439;53.512;10.206;2023-03-14T03:30:20;11.00;99.90
45729;DHT22;31439;53.512;10.206;2023-03-14T03:32:46;11.00;99.90
45729;DHT22;31439;53.512;10.206;2023-03-14T03:35:12;11.00;99.90
45729;DHT22;31439;53.512;10.206;2023-03-14T03:37:38;11.00;99.90
45729;DHT22;31439;53.512;10.206;2023-03-14T03:40:04;11.00;99.90
45729;DHT22;31439;53.512;10.206;2023-03-14T03:42:32;11.00;99.90
45729;DHT22;31439;53.512;10.206;2023-03-14T03:44:59;11.00;99.90
45729;DHT22;31439;53.512;10.206;2023-03-14T03:47:25;11.00;99.90
45729;DHT22;31439;53.512;10.206;2023-03-14T03:49:50;11.00;99.90
45729;DHT22;31439;53.512;10.206;2023-03-14T03:52:16;11.00;99.90
45729;DHT22;31439;53.512;10.206;2023-03-14T03:54:42;11.00;99.90
45729;DHT22;31439;53.512;10.206;2023-03-14T03:57:08;11.00;99.90
45729;DHT22;31439;53.512;10.206;2023-03-14T03:59:33;11.00;99.90
45729;DHT22;31439;53.512;10.206;2023-03-14T04:01:59;10.90;99.90
45729;DHT22;31439;53.512;10.206;2023-03-14T04:04:25;10.90;99.90
45729;DHT22;31439;53.512;10.206;2023-03-14T04:06:51;10.90;99.90
45729;DHT22;31439;53.512;10.206;2023-03-14T04:09:16;10.90;99.90
45729;DHT22;31439;53.512;10.206;2023-03-14T04:11:42;10.90;99.90
45729;DHT22;31439;53.512;10.206;2023-03-14T04:14:08;10.90;99.90
45729;DHT22;31439;53.512;10.206;2023-03-14T04:16:34;10.90;99.90
45729;DHT22;31439;53.512;10.206;2023-03-14T04:19:03;10.90;99.90
45729;DHT22;31439;53.512;10.206;2023-03-14T04:21:29;10.90;99.90
45729;DHT22;31439;53.512;10.206;2023-03-14T04:23:54;10.80;99.90
45729;DHT22;31439;53.512;10.206;2023-03-14T04:26:20;10.80;99.90
45729;DHT22;31439;53.512;10.206;2023-03-14T04:28:45;10.80;99.90
45729;DHT22;31439;53.512;10.206;2023-03-14T04:31:15;10.80;99.90
45729;DHT22;31439;53.512;10.206;2023-03-14T04:33:41;10.90;99.90
45729;DHT22;31439;53.512;10.206;2023-03-14T04:36:07;10.90;99.90
45729;DHT22;31439;53.512;10.206;2023-03-14T04:38:33;10.80;99.90
45729;DHT22;31439;53.512;10.206;2023-03-14T04:40:59;10.90;99.90
45729;DHT22;31439;53.512;10.206;2023-03-14T04:43:25;10.90;99.90
45729;DHT22;31439;53.512;10.206;2023-03-14T04:45:53;10.90;99.90
45729;DHT22;31439;53.512;10.206;2023-03-14T04:48:19;10.90;99.90
45729;DHT22;31439;53.512;10.206;2023-03-14T04:50:47;11.00;99.90
45729;DHT22;31439;53.512;10.206;2023-03-14T04:53:14;11.00;99.90
45729;DHT22;31439;53.512;10.206;2023-03-14T04:55:39;11.00;99.90
45729;DHT22;31439;53.512;10.206;2023-03-14T04:58:05;11.00;99.90
45729;DHT22;31439;53.512;10.206;2023-03-14T05:00:31;11.10;99.90
45729;DHT22;31439;53.512;10.206;2023-03-14T05:02:57;11.10;99.90
45729;DHT22;31439;53.512;10.206;2023-03-14T05:05:23;11.10;99.90
45729;DHT22;31439;53.512;10.206;2023-03-14T05:07:48;11.10;99.90
45729;DHT22;31439;53.512;10.206;2023-03-14T05:10:14;11.10;99.90
45729;DHT22;31439;53.512;10.206;2023-03-14T05:12:40;11.10;99.90
45729;DHT22;31439;53.512;10.206;2023-03-14T05:15:06;11.10;99.90
45729;DHT22;31439;53.512;10.206;2023-03-14T05:17:32;11.10;99.90
45729;DHT22;31439;53.512;10.206;2023-03-14T05:19:58;11.10;99.90
45729;DHT22;31439;53.512;10.206;2023-03-14T05:22:24;11.10;99.90
45729;DHT22;31439;53.512;10.206;2023-03-14T05:24:50;11.10;99.90
45729;DHT22;31439;53.512;10.206;2023-03-14T05:27:15;11.00;99.90
45729;DHT22;31439;53.512;10.206;2023-03-14T05:29:41;11.10;99.90
45729;DHT22;31439;53.512;10.206;2023-03-14T05:32:07;11.00;99.90
45729;DHT22;31439;53.512;10.206;2023-03-14T05:34:32;11.00;99.90
45729;DHT22;31439;53.512;10.206;2023-03-14T05:36:58;11.00;99.90
45729;DHT22;31439;53.512;10.206;2023-03-14T05:39:24;10.90;99.90
45729;DHT22;31439;53.512;10.206;2023-03-14T05:41:50;10.90;99.90
45729;DHT22;31439;53.512;10.206;2023-03-14T05:44:16;10.90;99.90
45729;DHT22;31439;53.512;10.206;2023-03-14T05:46:42;10.90;99.90
45729;DHT22;31439;53.512;10.206;2023-03-14T05:49:08;10.90;99.90
45729;DHT22;31439;53.512;10.206;2023-03-14T05:51:33;10.90;99.90
45729;DHT22;31439;53.512;10.206;2023-03-14T05:53:59;10.90;99.90
45729;DHT22;31439;53.512;10.206;2023-03-14T05:56:24;10.90;99.90
45729;DHT22;31439;53.512;10.206;2023-03-14T05:58:50;10.90;99.90
45729;DHT22;31439;53.512;10.206;2023-03-14T06:01:16;10.90;99.90
45729;DHT22;31439;53.512;10.206;2023-03-14T06:03:41;10.80;99.90
45729;DHT22;31439;53.512;10.206;2023-03-14T06:06:07;10.80;99.90
45729;DHT22;31439;53.512;10.206;2023-03-14T06:08:33;10.80;99.90
45729;DHT22;31439;53.512;10.206;2023-03-14T06:10:59;10.80;99.90
45729;DHT22;31439;53.512;10.206;2023-03-14T06:13:27;10.90;99.90
45729;DHT22;31439;53.512;10.206;2023-03-14T06:15:53;10.90;99.90
45729;DHT22;31439;53.512;10.206;2023-03-14T06:18:19;10.80;99.90
45729;DHT22;31439;53.512;10.206;2023-03-14T06:20:44;10.90;99.90
45729;DHT22;31439;53.512;10.206;2023-03-14T06:23:10;10.80;99.90
45729;DHT22;31439;53.512;10.206;2023-03-14T06:25:36;10.80;99.90
45729;DHT22;31439;53.512;10.206;2023-03-14T06:28:02;10.90;99.90
45729;DHT22;31439;53.512;10.206;2023-03-14T06:30:28;10.90;99.90
45729;DHT22;31439;53.512;10.206;2023-03-14T06:32:53;10.90;99.90
45729;DHT22;31439;53.512;10.206;2023-03-14T06:35:21;10.90;99.90
45729;DHT22;31439;53.512;10.206;2023-03-14T06:37:46;10.90;99.90
45729;DHT22;31439;53.512;10.206;2023-03-14T06:40:13;10.90;99.90
45729;DHT22;31439;53.512;10.206;2023-03-14T06:42:46;10.80;99.90
45729;DHT22;31439;53.512;10.206;2023-03-14T06:45:12;10.90;99.90
45729;DHT22;31439;53.512;10.206;2023-03-14T06:47:38;10.80;99.90
45729;DHT22;31439;53.512;10.206;2023-03-14T06:50:07;10.80;99.90
45729;DHT22;31439;53.512;10.206;2023-03-14T06:52:33;10.80;99.90
45729;DHT22;31439;53.512;10.206;2023-03-14T06:54:59;10.80;99.90
45729;DHT22;31439;53.512;10.206;2023-03-14T06:57:25;10.90;99.90
45729;DHT22;31439;53.512;10.206;2023-03-14T06:59:50;10.90;99.90
45729;DHT22;31439;53.512;10.206;2023-03-14T07:02:16;10.90;99.90
45729;DHT22;31439;53.512;10.206;2023-03-14T07:04:41;10.90;99.90
45729;DHT22;31439;53.512;10.206;2023-03-14T07:07:07;10.90;99.90
45729;DHT22;31439;53.512;10.206;2023-03-14T07:09:33;11.00;99.90
45729;DHT22;31439;53.512;10.206;2023-03-14T07:11:59;11.00;99.90
45729;DHT22;31439;53.512;10.206;2023-03-14T07:14:25;10.90;99.90
45729;DHT22;31439;53.512;10.206;2023-03-14T07:16:51;11.00;99.90
45729;DHT22;31439;53.512;10.206;2023-03-14T07:19:17;10.90;99.90
45729;DHT22;31439;53.512;10.206;2023-03-14T07:21:43;10.90;99.90
45729;DHT22;31439;53.512;10.206;2023-03-14T07:24:08;10.90;99.90
45729;DHT22;31439;53.512;10.206;2023-03-14T07:26:34;10.90;99.90
45729;DHT22;31439;53.512;10.206;2023-03-14T07:29:00;10.90;99.90
45729;DHT22;31439;53.512;10.206;2023-03-14T07:31:28;10.90;99.90
45729;DHT22;31439;53.512;10.206;2023-03-14T07:33:54;10.90;99.90
45729;DHT22;31439;53.512;10.206;2023-03-14T07:36:20;10.90;99.90
45729;DHT22;31439;53.512;10.206;2023-03-14T07:38:46;10.90;99.90
45729;DHT22;31439;53.512;10.206;2023-03-14T07:41:12;10.90;99.90
45729;DHT22;31439;53.512;10.206;2023-03-14T07:43:38;10.90;99.90
45729;DHT22;31439;53.512;10.206;2023-03-14T07:46:04;10.90;99.90
45729;DHT22;31439;53.512;10.206;2023-03-14T07:48:30;10.90;99.90
45729;DHT22;31439;53.512;10.206;2023-03-14T07:50:56;11.00;99.90
45729;DHT22;31439;53.512;10.206;2023-03-14T07:53:22;11.00;99.90
45729;DHT22;31439;53.512;10.206;2023-03-14T07:55:48;11.10;99.90
45729;DHT22;31439;53.512;10.206;2023-03-14T07:58:15;11.10;99.90
45729;DHT22;31439;53.512;10.206;2023-03-14T08:00:41;11.20;99.90
45729;DHT22;31439;53.512;10.206;2023-03-14T08:03:06;11.20;99.90
45729;DHT22;31439;53.512;10.206;2023-03-14T08:05:37;11.20;99.90
45729;DHT22;31439;53.512;10.206;2023-03-14T08:08:04;11.20;99.90
45729;DHT22;31439;53.512;10.206;2023-03-14T08:10:31;11.20;99.90
45729;DHT22;31439;53.512;10.206;2023-03-14T08:12:58;11.20;99.90
45729;DHT22;31439;53.512;10.206;2023-03-14T08:15:24;11.10;99.90
45729;DHT22;31439;53.512;10.206;2023-03-14T08:17:50;11.10;99.90
45729;DHT22;31439;53.512;10.206;2023-03-14T08:20:21;11.10;99.90
45729;DHT22;31439;53.512;10.206;2023-03-14T08:22:47;11.10;99.90
45729;DHT22;31439;53.512;10.206;2023-03-14T08:25:13;11.20;99.90
45729;DHT22;31439;53.512;10.206;2023-03-14T08:27:38;11.20;99.90
45729;DHT22;31439;53.512;10.206;2023-03-14T08:30:06;11.30;99.90
45729;DHT22;31439;53.512;10.206;2023-03-14T08:32:32;11.40;99.90
45729;DHT22;31439;53.512;10.206;2023-03-14T08:34:57;11.40;99.90
45729;DHT22;31439;53.512;10.206;2023-03-14T08:37:23;11.40;99.90
45729;DHT22;31439;53.512;10.206;2023-03-14T08:39:50;11.30;99.90
45729;DHT22;31439;53.512;10.206;2023-03-14T08:42:16;11.30;99.90
45729;DHT22;31439;53.512;10.206;2023-03-14T08:44:42;11.30;99.90
45729;DHT22;31439;53.512;10.206;2023-03-14T08:47:08;11.30;99.90
45729;DHT22;31439;53.512;10.206;2023-03-14T08:49:33;11.30;99.90
45729;DHT22;31439;53.512;10.206;2023-03-14T08:52:01;11.30;99.90
45729;DHT22;31439;53.512;10.206;2023-03-14T08:54:27;11.30;99.90
45729;DHT22;31439;53.512;10.206;2023-03-14T08:56:53;11.40;99.90
45729;DHT22;31439;53.512;10.206;2023-03-14T08:59:18;11.50;99.90
45729;DHT22;31439;53.512;10.206;2023-03-14T09:01:44;11.50;99.90
45729;DHT22;31439;53.512;10.206;2023-03-14T09:04:10;11.50;99.90
45729;DHT22;31439;53.512;10.206;2023-03-14T09:06:35;11.50;99.90
45729;DHT22;31439;53.512;10.206;2023-03-14T09:09:01;11.50;99.90
45729;DHT22;31439;53.512;10.206;2023-03-14T09:11:27;11.50;99.90
45729;DHT22;31439;53.512;10.206;2023-03-14T09:13:52;11.60;99.90
45729;DHT22;31439;53.512;10.206;2023-03-14T09:16:18;11.60;99.90
45729;DHT22;31439;53.512;10.206;2023-03-14T09:18:44;11.60;99.90
45729;DHT22;31439;53.512;10.206;2023-03-14T09:21:10;11.60;99.90
45729;DHT22;31439;53.512;10.206;2023-03-14T09:23:35;11.60;99.90
45729;DHT22;31439;53.512;10.206;2023-03-14T09:26:01;11.60;99.90
45729;DHT22;31439;53.512;10.206;2023-03-14T09:28:27;11.70;99.90
45729;DHT22;31439;53.512;10.206;2023-03-14T09:30:53;11.70;99.90
45729;DHT22;31439;53.512;10.206;2023-03-14T09:33:20;11.70;99.90
45729;DHT22;31439;53.512;10.206;2023-03-14T09:35:45;11.70;99.90
45729;DHT22;31439;53.512;10.206;2023-03-14T09:38:11;11.70;99.90
45729;DHT22;31439;53.512;10.206;2023-03-14T09:40:38;11.50;99.90
45729;DHT22;31439;53.512;10.206;2023-03-14T09:43:04;11.50;99.90
45729;DHT22;31439;53.512;10.206;2023-03-14T09:45:36;11.50;99.90
45729;DHT22;31439;53.512;10.206;2023-03-14T09:48:03;11.40;99.90
45729;DHT22;31439;53.512;10.206;2023-03-14T09:50:40;11.50;99.90
45729;DHT22;31439;53.512;10.206;2023-03-14T09:53:13;11.50;99.90
45729;DHT22;31439;53.512;10.206;2023-03-14T09:55:42;11.50;99.90
45729;DHT22;31439;53.512;10.206;2023-03-14T09:58:17;11.40;99.90
45729;DHT22;31439;53.512;10.206;2023-03-14T10:00:44;11.40;99.90
45729;DHT22;31439;53.512;10.206;2023-03-14T10:05:39;11.30;99.90
45729;DHT22;31439;53.512;10.206;2023-03-14T10:08:05;11.20;99.90
45729;DHT22;31439;53.512;10.206;2023-03-14T10:10:32;11.20;99.90
45729;DHT22;31439;53.512;10.206;2023-03-14T10:12:58;11.00;99.90
45729;DHT22;31439;53.512;10.206;2023-03-14T10:15:30;10.70;99.90
45729;DHT22;31439;53.512;10.206;2023-03-14T10:17:59;10.40;99.90
45729;DHT22;31439;53.512;10.206;2023-03-14T10:22:53;9.70;99.90
45729;DHT22;31439;53.512;10.206;2023-03-14T10:25:30;9.40;99.90
45729;DHT22;31439;53.512;10.206;2023-03-14T10:27:56;9.20;99.90
45729;DHT22;31439;53.512;10.206;2023-03-14T10:30:48;9.00;99.90
45729;DHT22;31439;53.512;10.206;2023-03-14T10:33:29;8.80;99.90
45729;DHT22;31439;53.512;10.206;2023-03-14T10:35:57;8.90;99.90
45729;DHT22;31439;53.512;10.206;2023-03-14T10:38:27;8.90;99.90
45729;DHT22;31439;53.512;10.206;2023-03-14T10:40:54;8.80;99.90
45729;DHT22;31439;53.512;10.206;2023-03-14T10:43:27;8.80;99.90
45729;DHT22;31439;53.512;10.206;2023-03-14T10:45:54;8.80;99.90
45729;DHT22;31439;53.512;10.206;2023-03-14T10:51:08;8.60;99.90
45729;DHT22;31439;53.512;10.206;2023-03-14T10:53:45;8.50;99.90
45729;DHT22;31439;53.512;10.206;2023-03-14T10:56:12;8.30;99.90
45729;DHT22;31439;53.512;10.206;2023-03-14T10:58:43;8.10;99.90
45729;DHT22;31439;53.512;10.206;2023-03-14T12:00:31;6.40;99.90
45729;DHT22;31439;53.512;10.206;2023-03-14T12:21:14;6.20;99.90
45729;DHT22;31439;53.512;10.206;2023-03-14T12:23:57;6.30;99.90
45729;DHT22;31439;53.512;10.206;2023-03-14T12:26:53;6.30;99.90
45729;DHT22;31439;53.512;10.206;2023-03-14T12:42:57;6.50;99.90
45729;DHT22;31439;53.512;10.206;2023-03-14T12:48:31;6.50;99.90
45729;DHT22;31439;53.512;10.206;2023-03-14T12:51:56;6.70;99.90
45729;DHT22;31439;53.512;10.206;2023-03-14T13:10:24;6.40;99.90
45729;DHT22;31439;53.512;10.206;2023-03-14T13:13:17;6.50;99.90
45729;DHT22;31439;53.512;10.206;2023-03-14T13:20:00;6.70;99.90
45729;DHT22;31439;53.512;10.206;2023-03-14T13:33:36;6.60;99.90
45729;DHT22;31439;53.512;10.206;2023-03-14T13:36:04;6.60;99.90
45729;DHT22;31439;53.512;10.206;2023-03-14T13:42:49;6.50;99.90
45729;DHT22;31439;53.512;10.206;2023-03-14T13:45:20;6.70;99.90
45729;DHT22;31439;53.512;10.206;2023-03-14T13:51:18;6.80;99.90
45729;DHT22;31439;53.512;10.206;2023-03-14T13:57:30;6.90;99.90
45729;DHT22;31439;53.512;10.206;2023-03-14T14:01:20;7.10;99.90
45729;DHT22;31439;53.512;10.206;2023-03-14T14:04:09;7.10;99.90
45729;DHT22;31439;53.512;10.206;2023-03-14T14:07:00;7.10;99.90
45729;DHT22;31439;53.512;10.206;2023-03-14T14:09:35;7.20;99.90
45729;DHT22;31439;53.512;10.206;2023-03-14T14:15:12;7.30;99.90
45729;DHT22;31439;53.512;10.206;2023-03-14T14:20:23;7.20;99.90
45729;DHT22;31439;53.512;10.206;2023-03-14T14:23:12;7.10;99.90
45729;DHT22;31439;53.512;10.206;2023-03-14T14:25:39;7.00;99.90
45729;DHT22;31439;53.512;10.206;2023-03-14T14:42:20;6.70;99.90
45729;DHT22;31439;53.512;10.206;2023-03-14T14:44:57;6.80;99.90
45729;DHT22;31439;53.512;10.206;2023-03-14T14:47:31;6.80;99.90
45729;DHT22;31439;53.512;10.206;2023-03-14T14:50:04;7.00;99.90
45729;DHT22;31439;53.512;10.206;2023-03-14T14:52:43;7.00;99.90
45729;DHT22;31439;53.512;10.206;2023-03-14T14:55:33;6.90;99.90
45729;DHT22;31439;53.512;10.206;2023-03-14T14:58:29;6.90;99.90
45729;DHT22;31439;53.512;10.206;2023-03-14T15:01:19;6.90;99.90
45729;DHT22;31439;53.512;10.206;2023-03-14T15:03:51;6.80;99.90
45729;DHT22;31439;53.512;10.206;2023-03-14T15:06:18;7.10;99.90
45729;DHT22;31439;53.512;10.206;2023-03-14T15:08:46;7.00;99.90
45729;DHT22;31439;53.512;10.206;2023-03-14T15:11:24;7.10;99.90
45729;DHT22;31439;53.512;10.206;2023-03-14T15:13:53;7.10;99.90
45729;DHT22;31439;53.512;10.206;2023-03-14T15:16:56;7.00;99.90
45729;DHT22;31439;53.512;10.206;2023-03-14T15:19:25;7.00;99.90
45729;DHT22;31439;53.512;10.206;2023-03-14T15:21:54;6.90;99.90
45729;DHT22;31439;53.512;10.206;2023-03-14T15:24:20;6.90;99.90
45729;DHT22;31439;53.512;10.206;2023-03-14T15:26:55;7.00;99.90
45729;DHT22;31439;53.512;10.206;2023-03-14T15:32:21;6.90;99.90
45729;DHT22;31439;53.512;10.206;2023-03-14T15:41:40;7.00;99.90
45729;DHT22;31439;53.512;10.206;2023-03-14T15:47:39;7.00;99.90
45729;DHT22;31439;53.512;10.206;2023-03-14T15:53:55;6.80;99.90
45729;DHT22;31439;53.512;10.206;2023-03-14T16:10:22;6.50;99.90
45729;DHT22;31439;53.512;10.206;2023-03-14T16:13:10;6.50;99.90
45729;DHT22;31439;53.512;10.206;2023-03-14T16:16:05;6.60;99.90
45729;DHT22;31439;53.512;10.206;2023-03-14T16:19:27;6.80;99.90
45729;DHT22;31439;53.512;10.206;2023-03-14T16:22:09;6.60;99.90
45729;DHT22;31439;53.512;10.206;2023-03-14T16:24:36;6.90;99.90
45729;DHT22;31439;53.512;10.206;2023-03-14T16:27:02;6.90;99.90
45729;DHT22;31439;53.512;10.206;2023-03-14T16:29:29;6.90;99.90
45729;DHT22;31439;53.512;10.206;2023-03-14T16:31:55;7.10;99.90
45729;DHT22;31439;53.512;10.206;2023-03-14T16:34:28;6.90;99.90
45729;DHT22;31439;53.512;10.206;2023-03-14T16:36:56;6.60;99.90
45729;DHT22;31439;53.512;10.206;2023-03-14T16:39:22;6.40;99.90
45729;DHT22;31439;53.512;10.206;2023-03-14T16:41:50;6.40;99.90
45729;DHT22;31439;53.512;10.206;2023-03-14T16:44:16;6.20;99.90
45729;DHT22;31439;53.512;10.206;2023-03-14T16:46:42;6.20;99.90
45729;DHT22;31439;53.512;10.206;2023-03-14T16:49:10;6.10;99.90
45729;DHT22;31439;53.512;10.206;2023-03-14T16:51:36;6.00;99.90
45729;DHT22;31439;53.512;10.206;2023-03-14T16:56:55;6.00;99.90
45729;DHT22;31439;53.512;10.206;2023-03-14T16:59:29;5.90;99.90
45729;DHT22;31439;53.512;10.206;2023-03-14T17:05:12;5.70;99.90
45729;DHT22;31439;53.512;10.206;2023-03-14T17:07:47;5.70;99.90
45729;DHT22;31439;53.512;10.206;2023-03-14T17:10:23;5.70;99.90
45729;DHT22;31439;53.512;10.206;2023-03-14T17:12:49;5.60;99.90
45729;DHT22;31439;53.512;10.206;2023-03-14T17:15:23;5.60;99.90
45729;DHT22;31439;53.512;10.206;2023-03-14T17:17:49;5.50;99.90
45729;DHT22;31439;53.512;10.206;2023-03-14T17:20:24;5.60;99.90
45729;DHT22;31439;53.512;10.206;2023-03-14T17:22:49;5.70;99.90
45729;DHT22;31439;53.512;10.206;2023-03-14T17:25:24;5.50;99.90
45729;DHT22;31439;53.512;10.206;2023-03-14T17:28:04;5.40;99.90
45729;DHT22;31439;53.512;10.206;2023-03-14T17:30:31;5.50;99.90
45729;DHT22;31439;53.512;10.206;2023-03-14T17:32:56;5.40;99.90
45729;DHT22;31439;53.512;10.206;2023-03-14T17:35:45;5.40;99.90
45729;DHT22;31439;53.512;10.206;2023-03-14T17:38:20;5.40;99.90
45729;DHT22;31439;53.512;10.206;2023-03-14T17:40:49;5.30;99.90
45729;DHT22;31439;53.512;10.206;2023-03-14T17:43:15;5.30;99.90
45729;DHT22;31439;53.512;10.206;2023-03-14T17:46:10;5.30;99.90
45729;DHT22;31439;53.512;10.206;2023-03-14T17:49:02;5.30;99.90
45729;DHT22;31439;53.512;10.206;2023-03-14T17:51:28;5.40;99.90
45729;DHT22;31439;53.512;10.206;2023-03-14T17:53:56;5.20;99.90
45729;DHT22;31439;53.512;10.206;2023-03-14T17:56:25;5.20;99.90
45729;DHT22;31439;53.512;10.206;2023-03-14T17:58:56;5.30;99.90
45729;DHT22;31439;53.512;10.206;2023-03-14T18:01:25;5.20;99.90
45729;DHT22;31439;53.512;10.206;2023-03-14T18:03:54;5.10;99.90
45729;DHT22;31439;53.512;10.206;2023-03-14T18:06:23;5.10;99.90
45729;DHT22;31439;53.512;10.206;2023-03-14T18:08:58;5.10;99.90
45729;DHT22;31439;53.512;10.206;2023-03-14T18:11:30;5.10;99.90
45729;DHT22;31439;53.512;10.206;2023-03-14T18:14:05;5.20;99.90
45729;DHT22;31439;53.512;10.206;2023-03-14T18:16:43;5.10;99.90
45729;DHT22;31439;53.512;10.206;2023-03-14T18:19:14;5.10;99.90
45729;DHT22;31439;53.512;10.206;2023-03-14T18:21:46;5.00;99.90
45729;DHT22;31439;53.512;10.206;2023-03-14T18:24:12;5.00;99.90
45729;DHT22;31439;53.512;10.206;2023-03-14T18:26:47;4.90;99.90
45729;DHT22;31439;53.512;10.206;2023-03-14T18:29:15;5.00;99.90
45729;DHT22;31439;53.512;10.206;2023-03-14T18:31:44;4.90;99.90
45729;DHT22;31439;53.512;10.206;2023-03-14T18:34:10;5.00;99.90
45729;DHT22;31439;53.512;10.206;2023-03-14T18:36:39;5.00;99.90
45729;DHT22;31439;53.512;10.206;2023-03-14T18:39:05;5.10;99.90
45729;DHT22;31439;53.512;10.206;2023-03-14T18:41:35;5.10;99.90
45729;DHT22;31439;53.512;10.206;2023-03-14T18:44:04;5.00;99.90
45729;DHT22;31439;53.512;10.206;2023-03-14T18:46:33;5.20;99.90
45729;DHT22;31439;53.512;10.206;2023-03-14T18:48:58;5.00;99.90
45729;DHT22;31439;53.512;10.206;2023-03-14T18:51:29;5.00;99.90
45729;DHT22;31439;53.512;10.206;2023-03-14T18:53:58;5.10;99.90
45729;DHT22;31439;53.512;10.206;2023-03-14T18:56:43;5.10;99.90
45729;DHT22;31439;53.512;10.206;2023-03-14T19:02:08;4.90;99.90